Time;durP1;ratioP1;P1;durP2;ratioP2;P2;SDS_P1;SDS_P2;PMS_P1;PMS_P2;Temp;Humidity;BMP_temperature;BMP_pressure;BME280_temperature;BME280_humidity;BME280_pressure;Samples;Min_cycle;Max_cycle;Signal;HPM_P1;HPM_P2
2022/05/15 00:02:17;;;;;;;6.95;5.07;;;;;;;15.08;84.12;95928.63;5029844;28;20029;-59
2022/05/15 00:04:42;;;;;;;5.78;5.28;;;;;;;15.12;83.47;95931.78;5029665;28;20412;-59
2022/05/15 00:07:08;;;;;;;5.18;4.70;;;;;;;15.11;83.78;95928.31;5029192;28;20126;-59
2022/05/15 00:09:34;;;;;;;5.78;5.20;;;;;;;15.13;84.17;95920.19;5029116;28;20076;-59
2022/05/15 00:11:59;;;;;;;6.38;5.70;;;;;;;15.13;83.81;95926.31;5029125;28;20370;-59
2022/05/15 00:14:25;;;;;;;6.00;5.53;;;;;;;15.08;84.16;95925.97;5029131;28;20028;-59
2022/05/15 00:16:51;;;;;;;5.45;4.93;;;;;;;15.07;84.46;95924.31;5028865;28;20067;-60
2022/05/15 00:19:17;;;;;;;6.13;5.57;;;;;;;15.03;84.10;95926.50;5029086;28;20032;-59
2022/05/15 00:21:42;;;;;;;5.53;4.90;;;;;;;15.03;85.51;95925.66;5029296;28;20028;-59
2022/05/15 00:24:08;;;;;;;5.25;4.68;;;;;;;14.95;85.06;95920.34;5028969;28;20047;-59
2022/05/15 00:26:34;;;;;;;7.47;5.03;;;;;;;14.91;85.04;95922.50;5028782;28;20071;-59
2022/05/15 00:29:00;;;;;;;5.82;4.85;;;;;;;14.91;84.88;95922.50;5028927;28;20026;-59
2022/05/15 00:31:26;;;;;;;6.20;5.63;;;;;;;14.93;84.54;95917.84;5029133;28;20056;-59
2022/05/15 00:33:51;;;;;;;5.38;4.95;;;;;;;14.87;85.45;95921.16;5028748;28;20084;-59
2022/05/15 00:36:17;;;;;;;6.05;5.55;;;;;;;14.86;84.87;95922.97;5029062;28;20396;-59
2022/05/15 00:38:43;;;;;;;6.45;5.95;;;;;;;14.86;84.87;95916.84;5028133;28;20626;-59
2022/05/15 00:41:08;;;;;;;6.30;5.70;;;;;;;14.86;84.98;95920.31;5028755;28;20064;-59
2022/05/15 00:43:38;;;;;;;5.95;5.45;;;;;;;14.84;85.01;95924.97;5028328;28;20117;-59
2022/05/15 00:46:07;;;;;;;5.78;5.38;;;;;;;14.73;85.57;95925.28;5028163;28;20061;-59
2022/05/15 00:48:33;;;;;;;5.80;5.30;;;;;;;14.64;86.07;95927.03;5028220;28;20025;-59
2022/05/15 00:51:05;;;;;;;6.53;5.43;;;;;;;14.58;86.63;95925.03;5028582;28;20049;-59
2022/05/15 00:53:34;;;;;;;5.55;5.05;;;;;;;14.54;86.77;95926.34;5028505;28;20104;-59
2022/05/15 00:56:01;;;;;;;5.72;5.22;;;;;;;14.47;86.71;95919.03;5028363;28;20075;-59
2022/05/15 00:58:33;;;;;;;7.60;6.30;;;;;;;14.41;86.88;95917.03;5028618;28;20029;-59
2022/05/15 01:00:58;;;;;;;5.95;5.45;;;;;;;14.38;87.44;95924.47;5028203;28;20030;-59
2022/05/15 01:03:24;;;;;;;5.68;5.28;;;;;;;14.40;87.15;95922.50;5028610;28;20072;-59
2022/05/15 01:05:55;;;;;;;5.60;4.97;;;;;;;14.39;87.66;95926.13;5028227;28;20028;-59
2022/05/15 01:08:22;;;;;;;7.15;5.85;;;;;;;14.30;87.96;95928.75;5028368;28;20045;-59
2022/05/15 01:10:51;;;;;;;7.85;5.57;;;;;;;14.35;87.65;95928.25;5028401;28;20045;-59
2022/05/15 01:13:19;;;;;;;6.38;5.70;;;;;;;14.42;87.47;95929.31;5028637;28;20021;-59
2022/05/15 01:15:46;;;;;;;7.38;5.90;;;;;;;14.37;88.49;95933.41;5028510;28;20037;-59
2022/05/15 01:18:11;;;;;;;5.93;5.43;;;;;;;14.32;88.19;95934.72;5028072;28;20026;-59
2022/05/15 01:20:40;;;;;;;8.05;5.80;;;;;;;14.31;88.02;95922.47;5028150;28;20026;-59
2022/05/15 01:23:06;;;;;;;9.77;5.55;;;;;;;14.31;88.10;95927.75;5026517;28;20481;-59
2022/05/15 01:25:34;;;;;;;6.07;5.57;;;;;;;14.28;89.02;95925.44;5027995;28;20025;-59
2022/05/15 01:28:17;;;;;;;5.38;4.88;;;;;;;14.33;87.87;95931.09;5027764;28;20057;-59
2022/05/15 01:30:47;;;;;;;6.15;5.65;;;;;;;14.35;87.80;95932.75;5028345;28;20101;-59
2022/05/15 01:33:12;;;;;;;6.78;5.97;;;;;;;14.35;87.63;95930.09;5027878;28;20432;-59
2022/05/15 01:35:38;;;;;;;6.00;5.47;;;;;;;14.33;87.82;95939.03;5027939;28;20021;-59
2022/05/15 01:38:04;;;;;;;6.18;5.15;;;;;;;14.27;88.16;95944.13;5027811;28;20033;-59
2022/05/15 01:40:30;;;;;;;6.60;6.07;;;;;;;14.23;89.18;95943.59;5027748;28;20029;-59
2022/05/15 01:42:55;;;;;;;8.48;5.70;;;;;;;14.20;89.86;95945.75;5025200;28;20017;-59
2022/05/15 01:45:21;;;;;;;6.97;6.38;;;;;;;14.23;89.74;95942.78;5027969;28;20455;-59
2022/05/15 01:47:46;;;;;;;6.13;5.50;;;;;;;14.22;89.59;95946.44;5026569;28;20040;-59
2022/05/15 01:50:13;;;;;;;11.38;5.50;;;;;;;14.20;88.68;95949.22;5025501;28;20026;-59
2022/05/15 01:52:40;;;;;;;6.10;5.60;;;;;;;14.12;88.83;95941.25;5026448;28;20303;-59
2022/05/15 01:55:06;;;;;;;6.32;5.82;;;;;;;14.05;89.12;95946.34;5027915;28;20057;-59
2022/05/15 01:57:32;;;;;;;8.05;5.43;;;;;;;14.04;89.18;95948.16;5031554;28;20022;-59
2022/05/15 01:59:58;;;;;;;6.10;5.60;;;;;;;14.00;89.52;95948.63;5031265;28;20048;-59
2022/05/15 02:02:23;;;;;;;5.40;4.88;;;;;;;13.97;89.23;95946.31;5031864;28;20048;-59
2022/05/15 02:04:49;;;;;;;5.28;4.70;;;;;;;13.93;90.18;95943.13;5031748;28;20016;-59
2022/05/15 02:07:14;;;;;;;6.05;5.50;;;;;;;13.94;89.46;95949.28;5031162;28;20021;-59
2022/05/15 02:09:40;;;;;;;7.18;5.80;;;;;;;13.89;90.93;95939.13;5031537;28;20032;-59
2022/05/15 02:12:06;;;;;;;6.10;5.50;;;;;;;13.90;90.15;95943.44;5031398;28;20100;-58
2022/05/15 02:14:32;;;;;;;6.15;5.55;;;;;;;13.95;89.65;95941.16;5031222;28;20128;-59
2022/05/15 02:16:57;;;;;;;5.55;5.10;;;;;;;14.00;90.07;95932.75;5031395;28;20030;-59
2022/05/15 02:19:23;;;;;;;6.70;6.07;;;;;;;13.97;90.53;95925.94;5031371;28;20041;-59
2022/05/15 02:21:48;;;;;;;6.95;6.35;;;;;;;13.98;90.64;95924.13;5031621;28;20792;-59
2022/05/15 02:24:14;;;;;;;6.15;5.65;;;;;;;13.98;90.33;95922.31;5031106;28;20104;-59
2022/05/15 02:26:39;;;;;;;5.82;5.38;;;;;;;13.95;90.54;95917.34;5031346;28;20633;-59
2022/05/15 02:29:06;;;;;;;6.20;5.60;;;;;;;13.92;90.16;95922.94;5031196;28;20480;-59
2022/05/15 02:31:32;;;;;;;6.10;5.50;;;;;;;13.92;90.73;95909.72;5031023;28;20013;-59
2022/05/15 02:33:58;;;;;;;7.97;5.88;;;;;;;13.91;90.35;95916.00;5031063;28;20022;-59
2022/05/15 02:36:25;;;;;;;6.15;5.65;;;;;;;13.90;89.74;95907.22;5031039;28;20052;-59
2022/05/15 02:38:50;;;;;;;6.47;5.55;;;;;;;13.90;90.94;95909.84;5031380;28;20719;-59
2022/05/15 02:41:16;;;;;;;6.20;5.65;;;;;;;13.88;92.38;95914.47;5031303;28;20017;-59
2022/05/15 02:43:41;;;;;;;7.78;5.68;;;;;;;13.87;91.74;95912.00;5030938;28;20499;-59
2022/05/15 02:46:07;;;;;;;6.50;5.90;;;;;;;13.89;90.48;95912.69;5030872;28;20034;-59
2022/05/15 02:51:16;;;;;;;6.32;5.75;;;;;;;13.86;90.53;95910.34;5031067;28;20040;-59
2022/05/15 02:53:44;;;;;;;5.93;5.35;;;;;;;13.88;90.11;95913.66;5030750;28;20025;-59
2022/05/15 02:56:17;;;;;;;5.43;5.00;;;;;;;13.86;90.70;95913.00;5030742;28;20022;-59
2022/05/15 02:58:43;;;;;;;6.30;5.72;;;;;;;13.81;90.84;95918.75;5030527;28;20064;-59
2022/05/15 03:01:08;;;;;;;6.10;5.60;;;;;;;13.70;92.56;95916.34;5030843;28;20413;-59
2022/05/15 03:03:34;;;;;;;9.70;6.28;;;;;;;13.62;92.17;95911.88;5030373;28;20053;-59
2022/05/15 03:06:00;;;;;;;6.25;5.60;;;;;;;13.63;92.21;95916.16;5030384;28;20017;-59
2022/05/15 03:08:25;;;;;;;6.45;5.85;;;;;;;13.57;92.05;95912.31;5030031;28;20034;-59
2022/05/15 03:10:51;;;;;;;7.40;6.20;;;;;;;13.52;91.80;95911.97;5032213;28;20037;-59
2022/05/15 03:13:16;;;;;;;5.57;5.05;;;;;;;13.51;91.30;95917.41;5031948;28;20099;-59
2022/05/15 03:15:42;;;;;;;6.47;5.85;;;;;;;13.45;91.45;95914.41;5031576;28;20484;-59
2022/05/15 03:18:07;;;;;;;6.05;5.63;;;;;;;13.48;91.09;95918.53;5031975;28;20025;-59
2022/05/15 03:20:33;;;;;;;6.53;6.00;;;;;;;13.33;92.70;95911.13;5031446;28;20531;-59
2022/05/15 03:22:59;;;;;;;8.57;6.00;;;;;;;13.13;93.83;95913.09;5031750;28;20033;-59
2022/05/15 03:25:27;;;;;;;6.38;5.82;;;;;;;13.07;94.34;95915.56;5031775;28;20457;-59
2022/05/15 03:27:54;;;;;;;7.13;5.75;;;;;;;13.12;94.04;95914.09;5031605;28;20670;-59
2022/05/15 03:30:19;;;;;;;6.35;5.85;;;;;;;13.16;93.16;95907.53;5031858;28;20030;-59
2022/05/15 03:32:45;;;;;;;6.22;5.63;;;;;;;13.18;93.09;95913.50;5031653;28;20074;-59
2022/05/15 03:35:11;;;;;;;6.03;5.43;;;;;;;13.22;92.62;95908.72;5031406;28;20549;-59
2022/05/15 03:37:37;;;;;;;6.18;5.72;;;;;;;13.24;92.65;95913.88;5031573;28;20021;-59
2022/05/15 03:40:04;;;;;;;7.60;6.45;;;;;;;13.21;93.49;95911.53;5031445;28;20610;-59
2022/05/15 03:42:29;;;;;;;7.68;6.00;;;;;;;13.17;93.83;95918.94;5031409;28;20033;-59
2022/05/15 03:44:55;;;;;;;6.97;6.28;;;;;;;13.16;93.71;95912.81;5031342;28;20099;-59
2022/05/15 03:47:20;;;;;;;9.77;6.55;;;;;;;13.16;94.86;95915.47;5031295;28;20112;-59
2022/05/15 03:49:46;;;;;;;9.32;6.15;;;;;;;13.18;94.24;95917.94;5031250;28;20026;-59
2022/05/15 03:52:11;;;;;;;6.88;6.38;;;;;;;13.28;93.55;95907.28;5025330;28;20029;-59
2022/05/15 03:54:37;;;;;;;7.22;6.20;;;;;;;13.29;94.15;95909.78;5020523;28;20018;-59
2022/05/15 03:57:03;;;;;;;6.97;6.38;;;;;;;13.23;94.09;95909.56;5011198;28;20537;-59
2022/05/15 03:59:33;;;;;;;6.55;6.00;;;;;;;13.22;94.22;95915.84;5011309;28;20042;-59
2022/05/15 04:02:00;;;;;;;6.10;5.60;;;;;;;13.24;94.08;95905.94;5011183;28;20520;-59
2022/05/15 04:04:26;;;;;;;7.20;6.57;;;;;;;13.23;94.41;95909.56;5011394;28;20025;-59
2022/05/15 04:06:51;;;;;;;6.93;6.32;;;;;;;13.26;93.17;95910.09;5017872;28;20489;-59
2022/05/15 04:09:17;;;;;;;7.20;6.68;;;;;;;13.23;94.00;95910.38;5030987;28;20724;-59
2022/05/15 04:11:42;;;;;;;6.95;6.25;;;;;;;13.22;93.79;95907.91;5030946;28;20014;-59
2022/05/15 04:14:08;;;;;;;6.72;6.00;;;;;;;13.18;94.70;95897.63;5030770;28;20037;-59
2022/05/15 04:16:34;;;;;;;7.10;6.38;;;;;;;13.08;95.14;95896.06;5030852;28;20025;-59
2022/05/15 04:18:59;;;;;;;6.93;6.22;;;;;;;13.03;95.01;95897.34;5029479;28;20103;-59
2022/05/15 04:21:25;;;;;;;7.10;6.32;;;;;;;13.05;94.75;95905.13;5031013;28;20481;-59
2022/05/15 04:23:51;;;;;;;8.27;6.05;;;;;;;13.05;95.20;95905.13;5030703;28;20022;-59
2022/05/15 04:26:17;;;;;;;7.80;6.03;;;;;;;13.09;94.63;95898.53;5030509;28;20622;-59
2022/05/15 04:28:43;;;;;;;6.43;5.82;;;;;;;13.09;94.58;95906.47;5030494;28;20068;-59
2022/05/15 04:31:08;;;;;;;6.57;5.90;;;;;;;13.16;93.42;95904.91;5030421;28;20049;-59
2022/05/15 04:33:34;;;;;;;6.40;5.75;;;;;;;13.18;93.56;95907.38;5030532;28;20028;-59
2022/05/15 04:36:00;;;;;;;6.93;5.80;;;;;;;13.18;93.90;95908.22;5030364;28;20033;-60
2022/05/15 04:38:27;;;;;;;6.75;6.15;;;;;;;13.21;93.64;95907.06;5030233;28;20148;-59
2022/05/15 04:40:52;;;;;;;7.50;6.40;;;;;;;13.24;93.45;95916.50;5030451;28;20034;-59
2022/05/15 04:43:18;;;;;;;6.85;6.25;;;;;;;13.25;94.39;95912.88;5029681;28;20567;-59
2022/05/15 04:45:44;;;;;;;7.03;6.43;;;;;;;13.29;94.33;95911.59;5021228;28;20057;-59
2022/05/15 04:48:10;;;;;;;6.60;6.00;;;;;;;13.37;93.45;95910.81;5022607;28;20026;-59
2022/05/15 04:50:37;;;;;;;6.72;6.18;;;;;;;13.40;94.30;95913.16;5010533;28;20038;-59
2022/05/15 04:53:04;;;;;;;8.50;5.82;;;;;;;13.38;94.82;95908.03;5010355;28;20026;-59
2022/05/15 04:55:30;;;;;;;8.10;5.38;;;;;;;13.42;93.81;95922.59;5010234;28;20022;-59
2022/05/15 04:57:55;;;;;;;6.40;5.90;;;;;;;13.44;93.31;95919.81;5010531;28;20393;-59
2022/05/15 05:00:20;;;;;;;6.65;6.05;;;;;;;13.44;93.32;95927.75;5012423;28;20056;-59
2022/05/15 05:02:47;;;;;;;7.57;6.28;;;;;;;13.41;93.54;95926.25;5029987;28;20025;-59
2022/05/15 05:05:12;;;;;;;7.50;6.40;;;;;;;13.42;93.38;95919.97;5029753;28;20033;-59
2022/05/15 05:07:38;;;;;;;7.18;5.55;;;;;;;13.42;93.51;95924.41;5029748;28;20033;-59
2022/05/15 05:10:05;;;;;;;7.03;6.40;;;;;;;13.43;94.64;95923.44;5029608;28;20022;-59
2022/05/15 05:12:30;;;;;;;7.07;6.38;;;;;;;13.39;94.01;95922.06;5029850;28;20030;-59
2022/05/15 05:14:58;;;;;;;8.02;6.75;;;;;;;13.39;94.53;95930.00;5028540;28;20523;-59
2022/05/15 05:17:23;;;;;;;9.43;6.50;;;;;;;13.45;93.97;95929.41;5029608;28;20025;-59
2022/05/15 05:19:49;;;;;;;9.18;6.75;;;;;;;13.56;94.18;95928.34;5029680;28;20044;-59
2022/05/15 05:22:14;;;;;;;6.88;6.28;;;;;;;13.61;93.67;95924.25;5029718;28;20036;-59
2022/05/15 05:24:39;;;;;;;8.63;6.47;;;;;;;13.79;93.09;95935.75;5029373;28;20107;-59
2022/05/15 05:27:05;;;;;;;6.47;5.97;;;;;;;13.96;93.30;95940.16;5027641;28;20076;-59
2022/05/15 05:29:30;;;;;;;7.25;6.55;;;;;;;14.10;92.89;95936.09;5026961;28;20033;-59
2022/05/15 05:31:56;;;;;;;7.78;6.80;;;;;;;14.27;91.58;95941.47;5026857;28;20020;-59
2022/05/15 05:34:21;;;;;;;6.95;6.15;;;;;;;14.38;90.96;95935.06;5026755;28;20567;-59
2022/05/15 05:36:47;;;;;;;6.80;6.20;;;;;;;14.54;90.53;95942.22;5027857;28;20021;-59
2022/05/15 05:39:12;;;;;;;14.77;6.30;;;;;;;14.69;90.58;95942.44;5026941;28;20022;-59
2022/05/15 05:41:37;;;;;;;6.38;5.88;;;;;;;14.85;89.47;95945.16;5026600;28;20717;-59
2022/05/15 05:44:03;;;;;;;7.07;6.45;;;;;;;15.02;88.11;95946.03;5026905;28;20168;-59
2022/05/15 05:46:29;;;;;;;7.40;5.82;;;;;;;15.14;87.44;95946.56;5026661;28;20119;-59
2022/05/15 05:48:55;;;;;;;7.00;6.32;;;;;;;15.24;87.29;95945.56;5024970;28;20033;-59
2022/05/15 05:51:21;;;;;;;6.97;6.28;;;;;;;15.37;86.35;95937.94;5026655;28;20033;-58
2022/05/15 05:53:47;;;;;;;6.55;5.95;;;;;;;15.50;85.72;95939.25;5026857;28;20013;-59
2022/05/15 05:56:13;;;;;;;6.15;5.47;;;;;;;15.60;84.66;95934.63;5026969;28;20022;-58
2022/05/15 05:58:38;;;;;;;6.55;5.95;;;;;;;15.74;83.96;95936.56;5026609;28;20028;-58
2022/05/15 06:01:04;;;;;;;9.18;5.57;;;;;;;15.89;84.04;95936.72;5027823;28;20501;-60
2022/05/15 06:06:13;;;;;;;6.28;5.78;;;;;;;16.24;83.00;95928.50;5028547;28;20037;-59
2022/05/15 06:08:40;;;;;;;6.00;5.60;;;;;;;16.45;80.97;95925.28;5029281;28;20055;-60
2022/05/15 06:11:05;;;;;;;5.55;5.00;;;;;;;16.75;79.11;95925.44;5029026;28;20402;-59
2022/05/15 06:13:31;;;;;;;7.75;5.43;;;;;;;16.93;78.07;95918.22;5024290;28;20029;-59
2022/05/15 06:15:57;;;;;;;5.95;5.35;;;;;;;17.30;77.59;95916.63;5011418;28;20030;-59
2022/05/15 06:18:22;;;;;;;6.15;5.55;;;;;;;17.68;74.66;95924.63;5008350;28;20022;-58
2022/05/15 06:20:48;;;;;;;7.95;5.55;;;;;;;17.97;73.25;95924.84;5007689;28;20018;-59
2022/05/15 06:23:13;;;;;;;5.43;5.03;;;;;;;18.17;72.02;95922.47;5010155;28;20381;-59
2022/05/15 06:25:39;;;;;;;5.65;5.10;;;;;;;18.40;71.68;95919.72;5015721;28;20145;-59
2022/05/15 06:28:04;;;;;;;5.80;5.30;;;;;;;18.69;70.76;95925.19;5022047;28;20528;-59
2022/05/15 06:30:30;;;;;;;5.05;4.65;;;;;;;18.94;70.31;95923.00;5018908;28;20021;-59
2022/05/15 06:32:55;;;;;;;5.85;5.35;;;;;;;19.11;67.93;95928.13;5019913;28;20021;-59
2022/05/15 06:35:21;;;;;;;5.78;5.05;;;;;;;19.29;67.70;95925.84;5019473;28;20467;-59
2022/05/15 06:37:47;;;;;;;5.65;5.05;;;;;;;19.68;66.21;95928.25;5022226;28;20053;-59
2022/05/15 06:40:14;;;;;;;7.03;4.97;;;;;;;19.75;65.72;95923.75;5027398;28;20060;-59
2022/05/15 06:42:40;;;;;;;5.20;4.80;;;;;;;20.09;64.29;95921.34;5028592;28;20026;-59
2022/05/15 06:45:07;;;;;;;5.97;5.47;;;;;;;20.44;63.67;95913.28;5028301;28;20555;-59
2022/05/15 06:47:33;;;;;;;5.10;4.60;;;;;;;20.62;62.41;95915.44;5028689;28;20420;-59
2022/05/15 06:50:00;;;;;;;4.97;4.57;;;;;;;20.85;62.05;95914.31;5017212;28;20025;-60
2022/05/15 06:52:26;;;;;;;5.50;4.88;;;;;;;21.04;62.79;95905.50;5011280;28;20112;-60
2022/05/15 06:54:52;;;;;;;4.90;4.50;;;;;;;21.22;59.99;95908.63;5026089;28;20136;-59
2022/05/15 06:57:29;;;;;;;5.05;4.40;;;;;;;21.17;58.06;95898.50;5030730;28;20034;-60
2022/05/15 07:00:00;;;;;;;4.95;4.55;;;;;;;21.47;59.11;95906.19;5027919;28;20417;-61
2022/05/15 07:02:28;;;;;;;7.50;4.93;;;;;;;21.61;56.90;95902.44;5031801;28;20037;-60
2022/05/15 07:04:54;;;;;;;6.05;4.70;;;;;;;21.71;54.99;95895.91;5025129;28;20039;-60
2022/05/15 07:07:20;;;;;;;5.63;4.40;;;;;;;21.60;56.44;95902.66;5031080;28;20033;-61
2022/05/15 07:09:47;;;;;;;5.13;4.72;;;;;;;21.86;56.49;95896.47;5030532;28;20473;-62
2022/05/15 07:12:12;;;;;;;4.50;4.13;;;;;;;21.90;58.54;95894.22;5031821;28;20072;-61
2022/05/15 07:14:38;;;;;;;5.70;4.47;;;;;;;22.16;56.65;95892.50;5031611;28;20057;-61
2022/05/15 07:17:04;;;;;;;4.95;4.45;;;;;;;22.58;54.16;95884.16;5030172;28;20148;-61
2022/05/15 07:19:29;;;;;;;5.13;4.57;;;;;;;22.34;55.56;95894.53;5012653;28;20026;-61
2022/05/15 07:21:55;;;;;;;4.75;3.97;;;;;;;22.51;54.00;95888.72;5012030;28;20024;-62
2022/05/15 07:24:22;;;;;;;5.60;4.75;;;;;;;22.42;54.34;95893.44;5010710;28;20513;-61
2022/05/15 07:26:51;;;;;;;5.60;4.40;;;;;;;22.25;55.86;95896.63;5011929;28;20030;-61
2022/05/15 07:29:16;;;;;;;5.32;4.28;;;;;;;22.10;55.03;95888.00;5011744;28;20029;-61
2022/05/15 07:31:42;;;;;;;4.72;4.20;;;;;;;22.07;54.96;95893.78;5011732;28;20053;-61
2022/05/15 07:34:08;;;;;;;4.43;4.13;;;;;;;22.57;52.77;95890.56;5011691;28;20367;-61
2022/05/15 07:36:34;;;;;;;8.90;4.32;;;;;;;22.58;53.61;95882.28;5012049;28;20029;-61
2022/05/15 07:39:00;;;;;;;4.68;4.03;;;;;;;22.35;56.07;95882.78;5011741;28;20543;-61
2022/05/15 07:41:26;;;;;;;7.80;4.07;;;;;;;22.81;55.52;95878.25;5011642;28;20025;-61
2022/05/15 07:43:51;;;;;;;5.63;5.07;;;;;;;23.07;53.37;95876.44;5011600;28;20025;-61
2022/05/15 07:46:17;;;;;;;5.32;4.55;;;;;;;22.96;53.78;95871.78;5014320;28;20036;-61
2022/05/15 07:48:42;;;;;;;4.70;4.07;;;;;;;23.00;52.77;95867.63;5031489;28;20116;-62
2022/05/15 07:51:08;;;;;;;4.10;3.72;;;;;;;23.25;52.06;95867.69;5031158;28;20017;-62
2022/05/15 07:53:34;;;;;;;4.93;3.80;;;;;;;23.56;49.55;95859.81;5031551;28;20025;-61
2022/05/15 07:56:03;;;;;;;4.65;4.22;;;;;;;23.64;49.78;95864.88;5030963;28;20160;-61
2022/05/15 07:58:28;;;;;;;4.43;3.72;;;;;;;23.73;49.66;95857.38;5031285;28;20032;-61
2022/05/15 08:00:55;;;;;;;3.90;3.60;;;;;;;23.45;50.92;95856.78;5031002;28;20041;-61
2022/05/15 08:03:20;;;;;;;4.60;4.20;;;;;;;22.94;52.74;95853.19;5031175;28;20139;-61
2022/05/15 08:08:30;;;;;;;4.70;4.30;;;;;;;22.39;53.62;95856.34;5031129;28;20037;-61
2022/05/15 08:10:56;;;;;;;7.03;4.20;;;;;;;22.83;52.24;95849.34;5030907;28;20030;-61
2022/05/15 08:13:26;;;;;;;6.18;3.78;;;;;;;23.28;51.76;95855.66;5030969;28;20025;-60
2022/05/15 08:15:51;;;;;;;5.45;3.80;;;;;;;23.32;51.53;95856.88;5030915;28;20032;-61
2022/05/15 08:23:50;;;;;;;;;;;;;;;24.02;47.81;95853.19;5031426;28;20068;-61
2022/05/15 08:26:16;;;;;;;5.97;4.82;;;;;;;23.94;48.74;95856.09;5030843;28;19947;-61
2022/05/15 08:28:41;;;;;;;5.00;4.13;;;;;;;23.84;48.72;95847.75;5030624;28;20037;-61
2022/05/15 08:31:08;;;;;;;4.82;4.40;;;;;;;23.91;48.14;95856.56;5030459;28;20028;-61
2022/05/15 08:33:34;;;;;;;5.00;3.72;;;;;;;24.13;48.39;95858.84;5030888;28;20053;-61
2022/05/15 08:36:00;;;;;;;5.05;3.50;;;;;;;23.77;47.80;95858.56;5030250;28;20120;-61
2022/05/15 08:38:26;;;;;;;4.45;4.03;;;;;;;23.68;48.20;95858.03;5030517;28;20522;-61
2022/05/15 08:40:59;;;;;;;5.45;3.92;;;;;;;23.78;48.22;95851.34;5030411;28;20033;-61
2022/05/15 08:43:41;;;;;;;4.78;3.67;;;;;;;23.78;49.25;95851.34;5030241;28;20029;-60
2022/05/15 08:46:20;;;;;;;4.50;3.97;;;;;;;24.48;48.83;95850.16;5030329;28;20060;-60
2022/05/15 08:48:46;;;;;;;3.90;3.60;;;;;;;24.96;48.37;95843.09;5030022;28;20025;-61
2022/05/15 08:51:13;;;;;;;4.28;3.83;;;;;;;25.41;47.13;95852.59;5030183;28;20064;-61
2022/05/15 08:53:41;;;;;;;4.05;3.28;;;;;;;25.65;43.87;95844.53;5030146;28;20128;-61
2022/05/15 08:56:08;;;;;;;4.22;3.85;;;;;;;25.85;44.86;95843.38;5030075;28;20033;-61
2022/05/15 08:58:43;;;;;;;4.53;4.13;;;;;;;25.93;44.20;95843.00;5030332;28;20112;-61
2022/05/15 09:01:12;;;;;;;;;;;;;;;25.97;40.95;95838.78;5030340;28;20036;-61
2022/05/15 09:03:38;;;;;;;3.90;3.40;;;;;;;25.97;42.63;95840.66;5030020;28;20045;-61
2022/05/15 09:06:22;;;;;;;3.97;3.53;;;;;;;25.81;41.85;95834.94;5029592;28;20018;-61
2022/05/15 09:09:17;;;;;;;7.17;4.50;;;;;;;25.59;43.29;95834.72;5029936;28;20400;-61
2022/05/15 09:12:16;;;;;;;3.85;3.50;;;;;;;24.83;44.89;95841.44;5029964;28;20516;-61
2022/05/15 09:15:11;;;;;;;4.43;3.53;;;;;;;25.80;43.07;95838.69;4996858;28;20044;-61
2022/05/15 09:18:00;;;;;;;4.72;4.18;;;;;;;25.94;42.66;95836.56;5030231;28;20048;-60
2022/05/15 09:20:26;;;;;;;4.15;3.78;;;;;;;26.12;43.16;95846.41;5029716;28;20041;-61
2022/05/15 09:23:25;;;;;;;8.32;4.35;;;;;;;25.59;45.05;95843.59;5029707;28;20033;-61
2022/05/15 09:25:51;;;;;;;5.70;3.70;;;;;;;25.69;43.88;95840.31;5029742;28;20569;-61
2022/05/15 09:28:17;;;;;;;4.57;4.20;;;;;;;24.83;46.17;95846.81;5029623;28;20036;-60
2022/05/15 09:30:48;;;;;;;5.45;4.38;;;;;;;24.88;46.47;95846.97;5029637;28;20033;-61
2022/05/15 09:33:36;;;;;;;8.80;4.95;;;;;;;25.39;45.41;95849.31;5029551;28;20544;-61
2022/05/15 09:36:28;;;;;;;4.57;4.15;;;;;;;25.20;45.94;95842.34;5029445;28;20026;-60
2022/05/15 09:39:23;;;;;;;4.90;4.40;;;;;;;24.82;47.24;95838.97;5028196;28;20466;-60
2022/05/15 09:44:42;;;;;;;5.88;4.03;;;;;;;25.95;43.74;95834.69;5029529;28;20164;-61
2022/05/15 09:47:10;;;;;;;4.32;3.22;;;;;;;25.63;44.06;95825.09;5029232;28;20109;-60
2022/05/15 09:49:36;;;;;;;4.03;3.67;;;;;;;26.11;45.30;95838.53;5029859;28;20037;-61
2022/05/15 09:52:10;;;;;;;4.20;3.80;;;;;;;26.66;44.02;95839.13;5029335;28;20030;-61
2022/05/15 09:54:38;;;;;;;6.13;3.85;;;;;;;26.89;41.58;95832.81;5029068;28;20022;-60
2022/05/15 09:57:09;;;;;;;4.75;3.60;;;;;;;26.44;42.16;95826.28;5028893;28;20030;-60
2022/05/15 09:59:35;;;;;;;3.92;3.55;;;;;;;26.48;43.13;95832.00;5029191;28;20061;-60
2022/05/15 10:02:01;;;;;;;3.63;3.28;;;;;;;27.20;41.24;95829.84;5029186;28;20029;-60
2022/05/15 10:04:39;;;;;;;3.53;3.30;;;;;;;28.02;38.49;95828.41;5029091;28;20036;-61
2022/05/15 10:07:09;;;;;;;4.60;3.20;;;;;;;27.45;40.51;95819.44;5028798;28;20025;-60
2022/05/15 10:09:40;;;;;;;3.80;3.47;;;;;;;27.49;39.77;95816.22;5029186;28;20373;-61
2022/05/15 10:12:20;;;;;;;3.53;3.22;;;;;;;28.26;38.23;95819.25;5028889;28;20099;-61
2022/05/15 10:14:50;;;;;;;4.38;3.30;;;;;;;27.97;39.86;95816.69;5029196;28;20694;-61
2022/05/15 10:17:16;;;;;;;5.88;3.72;;;;;;;27.39;40.96;95817.72;5029544;28;20489;-61
2022/05/15 10:20:15;;;;;;;3.58;3.28;;;;;;;28.28;37.33;95815.22;5033108;28;20523;-61
2022/05/15 10:22:47;;;;;;;4.50;3.58;;;;;;;27.60;41.26;95807.25;5033078;28;20025;-60
2022/05/15 10:25:16;;;;;;;4.00;3.63;;;;;;;27.08;42.10;95808.28;5032910;28;20021;-60
2022/05/15 10:27:54;;;;;;;7.35;3.33;;;;;;;27.62;41.32;95805.13;5032800;28;20025;-60
2022/05/15 10:30:31;;;;;;;3.50;3.20;;;;;;;27.86;40.53;95800.34;5032728;28;20033;-60
2022/05/15 10:33:04;;;;;;;5.70;3.60;;;;;;;28.89;37.67;95791.78;5032695;28;20374;-61
2022/05/15 10:35:56;;;;;;;3.88;3.55;;;;;;;28.29;39.08;95797.91;5032604;28;20022;-61
2022/05/15 10:38:46;;;;;;;3.85;3.42;;;;;;;28.81;37.20;95790.34;5032400;28;20171;-60
2022/05/15 10:41:15;;;;;;;7.75;3.40;;;;;;;28.69;38.52;95789.69;5032483;28;20037;-61
2022/05/15 10:43:46;;;;;;;4.82;3.40;;;;;;;28.47;39.01;95789.72;5032502;28;20112;-61
2022/05/15 10:46:45;;;;;;;4.55;3.30;;;;;;;28.47;38.57;95782.41;5032336;28;20061;-60
2022/05/15 10:49:14;;;;;;;6.18;3.33;;;;;;;29.17;36.15;95777.13;5032236;28;20044;-60
2022/05/15 10:51:40;;;;;;;4.20;3.17;;;;;;;29.12;35.70;95771.69;5032696;28;20029;-60
2022/05/15 10:57:28;;;;;;;4.18;3.40;;;;;;;28.86;36.56;95768.75;5016185;28;20037;-60
2022/05/15 11:00:21;;;;;;;6.00;3.05;;;;;;;28.45;38.39;95774.53;5013742;28;20045;-60
2022/05/15 11:03:24;;;;;;;3.75;3.33;;;;;;;28.71;38.29;95768.56;5012180;28;20030;-61
2022/05/15 11:05:55;;;;;;;3.42;2.70;;;;;;;28.78;38.03;95760.25;5012419;28;20088;-62
2022/05/15 11:08:48;;;;;;;3.75;2.95;;;;;;;28.65;36.68;95758.78;5013213;28;20087;-61
2022/05/15 11:11:45;;;;;;;4.13;3.40;;;;;;;28.19;38.05;95759.91;5018735;28;20112;-62
2022/05/15 11:14:23;;;;;;;2.90;2.70;;;;;;;28.79;37.79;95751.88;5027723;28;20061;-62
2022/05/15 11:17:14;;;;;;;5.18;3.05;;;;;;;29.98;34.72;95750.00;5026751;28;20117;-61
2022/05/15 11:19:44;;;;;;;3.17;2.92;;;;;;;30.49;31.74;95740.41;5023714;28;20055;-61
2022/05/15 11:22:34;;;;;;;4.50;2.90;;;;;;;30.15;34.64;95743.56;5030786;28;20079;-60
2022/05/15 11:25:04;;;;;;;3.35;2.75;;;;;;;30.15;32.89;95744.41;5030817;28;20033;-59
2022/05/15 11:27:42;;;;;;;6.20;2.88;;;;;;;30.73;29.95;95742.66;5030837;28;20112;-58
2022/05/15 11:30:12;;;;;;;3.05;2.65;;;;;;;30.67;30.83;95736.41;5030543;28;20706;-58
2022/05/15 11:32:46;;;;;;;4.88;2.60;;;;;;;30.75;31.54;95740.47;5024465;28;20045;-59
2022/05/15 11:35:17;;;;;;;2.55;2.35;;;;;;;30.82;29.51;95732.06;5020410;28;20032;-59
2022/05/15 11:38:06;;;;;;;4.32;2.75;;;;;;;31.23;28.54;95734.00;5014830;28;20599;-59
2022/05/15 11:40:49;;;;;;;2.80;2.60;;;;;;;30.77;30.06;95722.00;5028891;28;20030;-58
2022/05/15 11:43:26;;;;;;;3.05;2.60;;;;;;;30.28;31.28;95715.94;5030231;28;20056;-59
2022/05/15 11:46:08;;;;;;;3.20;3.00;;;;;;;30.71;30.67;95717.66;5029000;28;20026;-59
2022/05/15 11:48:43;;;;;;;3.92;2.67;;;;;;;31.19;29.16;95719.28;5029240;28;20065;-59
2022/05/15 11:51:14;;;;;;;2.90;2.60;;;;;;;30.72;30.10;95720.09;5030682;28;20036;-58
2022/05/15 11:53:52;;;;;;;2.88;2.67;;;;;;;30.38;31.53;95714.31;5029453;28;20385;-58
2022/05/15 11:56:20;;;;;;;4.60;4.13;;;;;;;30.41;33.52;95711.09;5028880;28;20112;-58
2022/05/15 11:58:53;;;;;;;3.30;3.00;;;;;;;30.93;30.79;95706.50;5016263;28;20022;-58
2022/05/15 12:01:39;;;;;;;3.35;3.00;;;;;;;31.14;32.16;95704.63;5015218;28;20658;-57
2022/05/15 12:04:35;;;;;;;4.57;3.00;;;;;;;31.43;30.98;95705.97;5022459;28;20046;-58